Argos, Greece
Current Conditions -  °F | °C
As of 3:50 AM on Tuesday 25 Nov 2014 (Local Time) from LGEL Reporting Station
Light Rain Light Rain  
Wind Chill: 45°   Ceiling: 7000
Heat Index: 48°   Visibility: 6mi
Dew Point: 43°   Wind: 7mph
Humidity: 82%   Direction: 350°N
Pressure: 30.18"   Gusts: NA
Location:  37.63°N, 22.73°E
Report Text: LGEL 250150Z 35006KT 9999 -RA SCT030 BKN070 09/06 Q1022
Loading
Personal Weather Stations






























Interactive Weather Map New forecast layout! Learn more

10-Day Weather Forecast

Advertisements
Track Severe Weather on mobile